createdAt,value
2023-04-12T00:01:41.702Z,9.10
2023-04-12T00:04:28.092Z,9.10
2023-04-12T00:07:13.150Z,9.14
2023-04-12T00:09:58.032Z,9.15
2023-04-12T00:12:43.189Z,9.17
2023-04-12T00:15:28.003Z,9.18
2023-04-12T00:18:12.929Z,9.20
2023-04-12T00:20:57.624Z,9.19
2023-04-12T00:23:44.234Z,9.20
2023-04-12T00:26:29.147Z,9.19
2023-04-12T00:29:15.641Z,9.19
2023-04-12T00:32:01.122Z,9.16
2023-04-12T00:34:48.400Z,9.19
2023-04-12T00:37:33.477Z,9.17
2023-04-12T00:40:20.370Z,9.16
2023-04-12T00:43:04.993Z,9.12
2023-04-12T00:45:50.497Z,9.14
2023-04-12T00:48:37.212Z,9.11
2023-04-12T00:51:24.874Z,9.10
2023-04-12T00:54:10.496Z,9.11
2023-04-12T00:56:56.794Z,9.07
2023-04-12T00:59:41.630Z,9.08
2023-04-12T01:02:27.087Z,9.06
2023-04-12T01:05:14.207Z,9.05
2023-04-12T01:08:15.001Z,9.04
2023-04-12T01:11:17.756Z,9.04
2023-04-12T01:14:08.657Z,9.03
2023-04-12T01:16:59.674Z,9.01
2023-04-12T01:20:21.687Z,8.98
2023-04-12T01:23:27.847Z,8.90
2023-04-12T01:26:34.005Z,8.85
2023-04-12T01:29:25.217Z,8.79
2023-04-12T01:32:12.273Z,8.78
2023-04-12T01:34:59.075Z,8.76
2023-04-12T01:37:45.360Z,8.76
2023-04-12T01:40:31.869Z,8.75
2023-04-12T01:43:17.587Z,8.74
2023-04-12T01:46:02.329Z,8.68
2023-04-12T01:48:52.896Z,8.60
2023-04-12T01:52:08.867Z,8.55
2023-04-12T01:54:56.893Z,8.48
2023-04-12T01:57:45.157Z,8.39
2023-04-12T02:00:56.416Z,8.31
2023-04-12T02:03:42.703Z,8.23
2023-04-12T02:06:27.881Z,8.17
2023-04-12T02:09:12.862Z,8.11
2023-04-12T02:11:58.168Z,8.07
2023-04-12T02:14:42.729Z,8.01
2023-04-12T02:17:29.153Z,7.91
2023-04-12T02:20:17.319Z,7.87
2023-04-12T02:23:02.223Z,7.79
2023-04-12T02:25:47.274Z,7.74
2023-04-12T02:28:34.102Z,7.68
2023-04-12T02:31:19.211Z,7.60
2023-04-12T02:34:06.987Z,7.50
2023-04-12T02:36:53.241Z,7.45
2023-04-12T02:39:37.684Z,7.39
2023-04-12T02:42:23.345Z,7.31
2023-04-12T02:45:09.136Z,7.26
2023-04-12T02:47:54.367Z,7.20
2023-04-12T02:50:43.808Z,7.20
2023-04-12T02:53:34.838Z,7.20
2023-04-12T02:56:43.184Z,7.17
2023-04-12T02:59:48.252Z,7.15
2023-04-12T03:02:38.281Z,7.11
2023-04-12T03:05:26.772Z,7.09
2023-04-12T03:08:11.522Z,7.11
2023-04-12T03:11:03.632Z,7.04
2023-04-12T03:13:48.458Z,7.07
2023-04-12T03:16:35.019Z,7.04
2023-04-12T03:19:28.653Z,7.03
2023-04-12T03:22:13.451Z,7.02
2023-04-12T03:25:05.436Z,7.00
2023-04-12T03:27:50.072Z,6.96
2023-04-12T03:30:38.156Z,6.96
2023-04-12T03:33:23.645Z,6.98
2023-04-12T03:36:12.448Z,7.00
2023-04-12T03:38:57.439Z,6.96
2023-04-12T03:41:42.389Z,6.97
2023-04-12T03:44:27.421Z,6.96
2023-04-12T03:47:14.853Z,6.96
2023-04-12T03:50:11.954Z,6.96
2023-04-12T03:53:01.223Z,6.94
2023-04-12T03:55:51.941Z,6.98
2023-04-12T03:58:36.853Z,7.00
2023-04-12T04:01:23.161Z,7.00
2023-04-12T04:04:09.821Z,6.98
2023-04-12T04:06:55.151Z,6.99
2023-04-12T04:09:40.282Z,6.97
2023-04-12T04:12:27.432Z,6.98
2023-04-12T04:15:16.590Z,6.98
2023-04-12T04:18:02.151Z,6.92
2023-04-12T04:20:47.457Z,6.99
2023-04-12T04:23:39.302Z,7.02
2023-04-12T04:26:32.714Z,7.02
2023-04-12T04:29:26.541Z,7.01
2023-04-12T04:32:12.445Z,7.07
2023-04-12T04:34:59.304Z,7.09
2023-04-12T04:37:48.552Z,7.12
2023-04-12T04:40:37.838Z,7.12
2023-04-12T04:43:23.318Z,7.13
2023-04-12T04:46:13.124Z,7.17
2023-04-12T04:48:58.014Z,7.15
2023-04-12T04:51:43.429Z,7.16
2023-04-12T04:54:32.520Z,7.19
2023-04-12T04:57:18.795Z,7.18
2023-04-12T05:00:11.082Z,7.21
2023-04-12T05:02:57.344Z,7.23
2023-04-12T05:05:48.402Z,7.23
2023-04-12T05:08:33.725Z,7.30
2023-04-12T05:11:19.029Z,7.31
2023-04-12T05:14:04.220Z,7.35
2023-04-12T05:16:49.548Z,7.36
2023-04-12T05:19:35.942Z,7.38
2023-04-12T05:22:21.556Z,7.37
2023-04-12T05:25:06.506Z,7.39
2023-04-12T05:27:57.172Z,7.41
2023-04-12T05:30:44.452Z,7.42
2023-04-12T05:33:33.948Z,7.42
2023-04-12T05:36:20.573Z,7.46
2023-04-12T05:39:08.559Z,7.49
2023-04-12T05:41:54.403Z,7.50
2023-04-12T05:44:39.648Z,7.51
2023-04-12T05:47:28.460Z,7.48
2023-04-12T05:50:15.136Z,7.53
2023-04-12T05:53:01.405Z,7.57
2023-04-12T05:55:48.584Z,7.66
2023-04-12T05:58:35.835Z,7.72
2023-04-12T06:01:21.414Z,7.75
2023-04-12T06:04:06.968Z,7.85
2023-04-12T06:06:52.282Z,7.80
2023-04-12T06:09:36.974Z,7.82
2023-04-12T06:12:22.237Z,7.88
2023-04-12T06:15:07.326Z,7.92
2023-04-12T06:17:52.631Z,7.96
2023-04-12T06:20:39.804Z,7.93
2023-04-12T06:23:24.692Z,8.00
2023-04-12T06:26:10.828Z,8.05
2023-04-12T06:28:56.800Z,8.05
2023-04-12T06:31:42.492Z,8.12
2023-04-12T06:34:29.476Z,8.13
2023-04-12T06:37:55.190Z,8.17
2023-04-12T06:40:40.913Z,8.09
2023-04-12T06:51:58.279Z,8.14
2023-04-12T06:54:43.926Z,8.30
2023-04-12T06:57:28.802Z,8.20
2023-04-12T07:00:14.264Z,8.16
2023-04-12T07:02:59.251Z,8.07
2023-04-12T07:05:45.446Z,8.10
2023-04-12T07:11:41.065Z,8.10
2023-04-12T07:15:21.110Z,8.12
2023-04-12T07:19:07.216Z,8.10
2023-04-12T07:26:42.881Z,8.14
2023-04-12T07:29:52.585Z,8.27
2023-04-12T07:32:37.665Z,8.20
2023-04-12T07:35:22.823Z,8.20
2023-04-12T07:38:10.455Z,8.24
2023-04-12T07:41:01.791Z,8.27
2023-04-12T07:43:46.702Z,8.39
2023-04-12T07:46:31.710Z,8.51
2023-04-12T07:49:16.743Z,8.54
2023-04-12T07:52:02.112Z,8.66
2023-04-12T07:54:47.899Z,8.71
2023-04-12T07:57:34.140Z,8.82
2023-04-12T08:00:23.281Z,8.90
2023-04-12T08:03:08.587Z,8.99
2023-04-12T08:05:54.063Z,9.07
2023-04-12T08:08:38.977Z,9.11
2023-04-12T08:11:23.912Z,9.19
2023-04-12T08:14:09.924Z,9.25
2023-04-12T08:17:00.810Z,9.40
2023-04-12T08:20:03.392Z,9.43
2023-04-12T08:22:49.493Z,9.36
2023-04-12T08:26:11.980Z,9.27
2023-04-12T08:28:57.830Z,9.21
2023-04-12T08:31:42.907Z,9.14
2023-04-12T08:34:27.991Z,9.05
2023-04-12T08:37:12.947Z,9.11
2023-04-12T08:40:22.760Z,9.19
2023-04-12T08:43:11.478Z,9.35
2023-04-12T08:45:58.552Z,9.31
2023-04-12T08:49:16.045Z,9.35
2023-04-12T08:52:05.262Z,9.40
2023-04-12T08:55:05.753Z,9.34
2023-04-12T08:58:13.660Z,9.34
2023-04-12T09:01:15.321Z,9.17
2023-04-12T09:04:06.241Z,9.10
2023-04-12T09:06:51.998Z,9.09
2023-04-12T09:09:43.898Z,9.09
2023-04-12T09:12:29.228Z,9.10
2023-04-12T09:15:17.992Z,9.09
2023-04-12T09:18:04.242Z,9.15
2023-04-12T09:20:49.659Z,8.98
2023-04-12T09:23:37.341Z,8.88
2023-04-12T09:26:29.650Z,8.90
2023-04-12T09:29:27.112Z,8.98
2023-04-12T09:32:11.834Z,8.83
2023-04-12T09:35:37.285Z,8.94
2023-04-12T09:38:56.336Z,8.96
2023-04-12T09:42:10.506Z,8.82
2023-04-12T09:45:17.828Z,8.87
2023-04-12T09:48:06.269Z,8.89
2023-04-12T09:50:59.200Z,8.77
2023-04-12T09:53:47.467Z,8.61
2023-04-12T09:56:39.297Z,8.40
2023-04-12T09:59:41.726Z,8.48
2023-04-12T10:02:51.826Z,8.46
2023-04-12T10:09:08.075Z,8.37
2023-04-12T10:11:53.256Z,8.46
2023-04-12T10:14:42.246Z,8.47
2023-04-12T10:17:27.419Z,8.57
2023-04-12T10:20:14.891Z,8.62
2023-04-12T10:23:00.111Z,8.72
2023-04-12T10:26:08.815Z,8.82
2023-04-12T10:29:26.715Z,8.75
2023-04-12T10:32:24.166Z,8.77
2023-04-12T10:35:13.937Z,8.82
2023-04-12T10:38:07.033Z,8.85
2023-04-12T10:41:10.578Z,9.06
2023-04-12T10:44:33.316Z,9.34
2023-04-12T10:48:02.680Z,9.49
2023-04-12T10:50:47.411Z,9.74
2023-04-12T10:53:34.844Z,9.71
2023-04-12T10:56:32.027Z,9.64
2023-04-12T10:59:18.101Z,9.68
2023-04-12T11:02:11.478Z,9.53
2023-04-12T11:05:18.829Z,9.62
2023-04-12T11:08:39.222Z,9.71
2023-04-12T11:12:26.661Z,9.75
2023-04-12T11:15:54.709Z,9.76
2023-04-12T11:18:46.199Z,9.82
2023-04-12T11:21:31.010Z,9.78
2023-04-12T11:24:21.808Z,9.88
2023-04-12T11:27:07.984Z,9.84
2023-04-12T11:30:00.459Z,9.69
2023-04-12T11:32:46.640Z,9.48
2023-04-12T11:35:31.540Z,9.64
2023-04-12T11:38:16.486Z,9.84
2023-04-12T11:41:06.390Z,10.02
2023-04-12T11:43:52.145Z,10.17
2023-04-12T11:46:36.925Z,10.28
2023-04-12T11:49:22.885Z,10.22
2023-04-12T11:52:08.198Z,10.18
2023-04-12T11:54:55.840Z,10.15
2023-04-12T11:57:40.712Z,9.85
2023-04-12T12:00:27.746Z,9.68
2023-04-12T12:03:15.781Z,9.55
2023-04-12T12:06:00.990Z,9.50
2023-04-12T12:08:46.420Z,9.47
2023-04-12T12:11:32.501Z,9.54
2023-04-12T12:14:22.513Z,9.73
2023-04-12T12:17:15.804Z,9.73
2023-04-12T12:20:01.818Z,9.79
2023-04-12T12:22:47.137Z,10.05
2023-04-12T12:25:32.116Z,10.28
2023-04-12T12:28:17.429Z,10.35
2023-04-12T12:31:06.042Z,10.62
2023-04-12T12:33:58.347Z,10.79
2023-04-12T12:36:43.393Z,10.96
2023-04-12T12:39:28.580Z,11.04
2023-04-12T12:42:13.627Z,11.02
2023-04-12T12:44:58.513Z,10.93
2023-04-12T12:47:52.991Z,10.57
2023-04-12T12:50:38.620Z,10.17
2023-04-12T12:53:24.531Z,10.01
2023-04-12T12:56:11.141Z,9.93
2023-04-12T12:58:56.377Z,9.87
2023-04-12T13:01:41.683Z,9.73
2023-04-12T13:04:26.684Z,9.71
2023-04-12T13:07:11.674Z,9.72
2023-04-12T13:09:57.230Z,9.66
2023-04-12T13:12:42.331Z,9.61
2023-04-12T13:15:27.333Z,9.57
2023-04-12T13:18:15.597Z,9.52
2023-04-12T13:21:01.626Z,9.40
2023-04-12T13:23:46.526Z,9.31
2023-04-12T13:26:31.532Z,9.28
2023-04-12T13:29:17.050Z,9.27
2023-04-12T13:32:02.403Z,9.30
2023-04-12T13:34:47.581Z,9.32
2023-04-12T13:37:33.570Z,9.23
2023-04-12T13:40:18.735Z,9.22
2023-04-12T13:43:04.055Z,9.21
2023-04-12T13:45:50.129Z,9.24
2023-04-12T13:48:34.918Z,9.25
2023-04-12T13:51:19.809Z,9.31
2023-04-12T13:54:05.192Z,9.37
2023-04-12T13:56:50.079Z,9.41
2023-04-12T13:59:35.018Z,9.43
2023-04-12T14:02:20.344Z,9.49
2023-04-12T14:05:06.504Z,9.50
2023-04-12T14:07:54.990Z,9.48
2023-04-12T14:10:39.957Z,9.46
2023-04-12T14:13:26.145Z,9.43
2023-04-12T14:16:11.463Z,9.44
2023-04-12T14:18:56.615Z,9.43
2023-04-12T14:21:41.646Z,9.36
2023-04-12T14:24:26.775Z,9.27
2023-04-12T14:27:12.111Z,9.21
2023-04-12T14:29:56.673Z,9.27
2023-04-12T14:32:41.624Z,9.30
2023-04-12T14:35:26.532Z,9.30
2023-04-12T14:38:12.036Z,9.33
2023-04-12T14:40:56.821Z,9.32
2023-04-12T14:43:42.229Z,9.31
2023-04-12T14:46:27.637Z,9.39
2023-04-12T14:49:12.977Z,9.53
2023-04-12T14:51:57.761Z,9.62
2023-04-12T14:54:42.775Z,9.66
2023-04-12T14:57:27.520Z,9.67
2023-04-12T15:00:14.820Z,9.62
2023-04-12T15:03:00.174Z,9.55
2023-04-12T15:05:45.160Z,9.49
2023-04-12T15:08:30.376Z,9.40
2023-04-12T15:11:18.529Z,9.37
2023-04-12T15:14:03.748Z,9.31
2023-04-12T15:16:48.729Z,9.22
2023-04-12T15:19:33.685Z,9.14
2023-04-12T15:22:18.640Z,9.14
2023-04-12T15:25:04.270Z,9.08
2023-04-12T15:27:50.205Z,9.02
2023-04-12T15:30:35.102Z,9.01
2023-04-12T15:33:20.638Z,9.00
2023-04-12T15:36:05.629Z,8.99
2023-04-12T15:38:50.778Z,8.99
2023-04-12T15:41:39.469Z,8.98
2023-04-12T15:44:29.533Z,8.99
2023-04-12T15:47:14.314Z,8.99
2023-04-12T15:49:59.298Z,8.98
2023-04-12T15:52:44.396Z,8.99
2023-04-12T15:55:29.240Z,8.98
2023-04-12T15:58:14.398Z,8.97
2023-04-12T16:00:59.370Z,8.95
2023-04-12T16:03:48.763Z,8.94
2023-04-12T16:06:35.225Z,8.95
2023-04-12T16:09:21.593Z,8.92
2023-04-12T16:12:06.837Z,8.93
2023-04-12T16:14:51.996Z,8.91
2023-04-12T16:17:36.848Z,8.91
2023-04-12T16:20:22.473Z,8.87
2023-04-12T16:23:07.495Z,8.85
2023-04-12T16:25:52.106Z,8.82
2023-04-12T16:28:42.271Z,8.79
2023-04-12T16:31:27.199Z,8.78
2023-04-12T16:34:12.232Z,8.76
2023-04-12T16:36:57.403Z,8.75
2023-04-12T16:39:44.595Z,8.72
2023-04-12T16:42:31.134Z,8.74
2023-04-12T16:45:15.975Z,8.71
2023-04-12T16:48:01.359Z,8.68
2023-04-12T16:50:47.757Z,8.69
2023-04-12T16:53:32.673Z,8.65
2023-04-12T16:56:19.362Z,8.67
2023-04-12T16:59:04.429Z,8.65
2023-04-12T17:01:49.518Z,8.63
2023-04-12T17:04:34.669Z,8.62
2023-04-12T17:07:19.418Z,8.62
2023-04-12T17:10:06.043Z,8.62
2023-04-12T17:12:56.884Z,8.59
2023-04-12T17:15:41.928Z,8.57
2023-04-12T17:18:26.540Z,8.58
2023-04-12T17:21:14.861Z,8.58
2023-04-12T17:23:59.832Z,8.58
2023-04-12T17:26:45.976Z,8.58
2023-04-12T17:29:31.754Z,8.58
2023-04-12T17:32:16.875Z,8.59
2023-04-12T17:35:02.990Z,8.55
2023-04-12T17:37:48.128Z,8.58
2023-04-12T17:40:33.063Z,8.58
2023-04-12T17:43:17.904Z,8.57
2023-04-12T17:46:03.575Z,8.59
2023-04-12T17:48:48.411Z,8.59
2023-04-12T17:51:33.383Z,8.56
2023-04-12T17:54:19.242Z,8.56
2023-04-12T17:57:04.634Z,8.55
2023-04-12T17:59:49.880Z,8.53
2023-04-12T18:02:34.743Z,8.55
2023-04-12T18:05:19.657Z,8.55
2023-04-12T18:08:05.589Z,8.52
2023-04-12T18:10:51.740Z,8.53
2023-04-12T18:13:36.593Z,8.52
2023-04-12T18:16:21.584Z,8.49
2023-04-12T18:19:07.604Z,8.53
2023-04-12T18:21:52.304Z,8.53
2023-04-12T18:24:38.507Z,8.51
2023-04-12T18:27:23.701Z,8.50
2023-04-12T18:30:08.837Z,8.48
2023-04-12T18:32:53.987Z,8.51
2023-04-12T18:35:39.453Z,8.52
2023-04-12T18:38:24.510Z,8.50
2023-04-12T18:41:14.581Z,8.49
2023-04-12T18:44:00.162Z,8.50
2023-04-12T18:46:45.793Z,8.50
2023-04-12T18:49:30.685Z,8.50
2023-04-12T18:52:16.065Z,8.51
2023-04-12T18:55:01.108Z,8.52
2023-04-12T18:57:48.879Z,8.49
2023-04-12T19:00:34.341Z,8.50
2023-04-12T19:03:19.216Z,8.47
2023-04-12T19:06:04.175Z,8.47
2023-04-12T19:08:49.801Z,8.45
2023-04-12T19:11:36.917Z,8.46
2023-04-12T19:14:22.151Z,8.46
2023-04-12T19:17:07.438Z,8.46
2023-04-12T19:19:51.977Z,8.46
2023-04-12T19:22:37.152Z,8.48
2023-04-12T19:25:24.960Z,8.50
2023-04-12T19:28:10.575Z,8.50
2023-04-12T19:30:57.180Z,8.51
2023-04-12T19:33:41.961Z,8.49
2023-04-12T19:36:27.112Z,8.49
2023-04-12T19:39:12.053Z,8.49
2023-04-12T19:41:57.350Z,8.48
2023-04-12T19:44:42.246Z,8.47
2023-04-12T19:47:26.865Z,8.46
2023-04-12T19:50:16.290Z,8.44
2023-04-12T19:53:02.226Z,8.42
2023-04-12T19:55:47.256Z,8.41
2023-04-12T19:58:32.593Z,8.41
2023-04-12T20:01:18.216Z,8.43
2023-04-12T20:04:04.697Z,8.43
2023-04-12T20:06:53.540Z,8.43
2023-04-12T20:09:38.084Z,8.41
2023-04-12T20:12:22.771Z,8.42
2023-04-12T20:15:08.557Z,8.40
2023-04-12T20:17:53.370Z,8.42
2023-04-12T20:20:38.332Z,8.41
2023-04-12T20:23:24.756Z,8.40
2023-04-12T20:26:09.886Z,8.40
2023-04-12T20:28:55.291Z,8.41
2023-04-12T20:31:39.827Z,8.41
2023-04-12T20:34:26.170Z,8.41
2023-04-12T20:37:10.669Z,8.41
2023-04-12T20:39:56.161Z,8.39
2023-04-12T20:42:41.914Z,8.37
2023-04-12T20:45:26.700Z,8.39
2023-04-12T20:48:11.877Z,8.40
2023-04-12T20:50:56.862Z,8.37
2023-04-12T20:53:48.142Z,8.40
2023-04-12T20:56:32.782Z,8.40
2023-04-12T20:59:21.223Z,8.40
2023-04-12T21:02:06.740Z,8.40
2023-04-12T21:04:51.583Z,8.41
2023-04-12T21:07:36.936Z,8.40
2023-04-12T21:10:21.859Z,8.44
2023-04-12T21:13:06.834Z,8.45
2023-04-12T21:15:52.257Z,8.44
2023-04-12T21:18:37.349Z,8.42
2023-04-12T21:21:22.251Z,8.43
2023-04-12T21:24:07.296Z,8.41
2023-04-12T21:26:56.277Z,8.40
2023-04-12T21:29:41.784Z,8.37
2023-04-12T21:32:26.328Z,8.36
2023-04-12T21:35:15.716Z,8.39
2023-04-12T21:38:00.763Z,8.37
2023-04-12T21:40:45.784Z,8.37
2023-04-12T21:43:30.541Z,8.38
2023-04-12T21:46:15.344Z,8.39
2023-04-12T21:49:00.532Z,8.39
2023-04-12T21:51:48.578Z,8.44
2023-04-12T21:54:36.206Z,8.40
2023-04-12T21:57:21.150Z,8.41
2023-04-12T22:00:09.073Z,8.39
2023-04-12T22:02:56.687Z,8.36
2023-04-12T22:05:42.054Z,8.32
2023-04-12T22:08:29.000Z,8.33
2023-04-12T22:11:14.314Z,8.34
2023-04-12T22:13:59.047Z,8.33
2023-04-12T22:16:44.619Z,8.36
2023-04-12T22:19:29.609Z,8.36
2023-04-12T22:22:15.518Z,8.33
2023-04-12T22:25:00.922Z,8.33
2023-04-12T22:27:45.930Z,8.31
2023-04-12T22:30:30.775Z,8.31
2023-04-12T22:33:15.462Z,8.31
2023-04-12T22:36:01.623Z,8.32
2023-04-12T22:38:49.065Z,8.34
2023-04-12T22:41:34.673Z,8.32
2023-04-12T22:44:22.571Z,8.33
2023-04-12T22:47:07.770Z,8.35
2023-04-12T22:49:57.659Z,8.35
2023-04-12T22:52:42.245Z,8.34
2023-04-12T22:55:28.141Z,8.32
2023-04-12T22:58:12.898Z,8.32
2023-04-12T23:00:58.341Z,8.31
2023-04-12T23:03:44.082Z,8.36
2023-04-12T23:06:31.624Z,8.37
2023-04-12T23:09:16.378Z,8.35
2023-04-12T23:12:01.177Z,8.33
2023-04-12T23:14:46.028Z,8.32
2023-04-12T23:17:32.155Z,8.30
2023-04-12T23:20:18.165Z,8.27
2023-04-12T23:23:03.567Z,8.30
2023-04-12T23:25:48.584Z,8.30
2023-04-12T23:28:33.676Z,8.29
2023-04-12T23:31:18.529Z,8.26
2023-04-12T23:34:04.616Z,8.24
2023-04-12T23:36:49.973Z,8.25
2023-04-12T23:39:34.652Z,8.26
2023-04-12T23:42:19.728Z,8.26
2023-04-12T23:45:04.820Z,8.22
2023-04-12T23:47:49.900Z,8.21
2023-04-12T23:50:35.019Z,8.21
2023-04-12T23:53:20.408Z,8.22
2023-04-12T23:56:06.206Z,8.21
2023-04-12T23:58:50.807Z,8.19
